OOEHY BGBW-CYYR
Flight info
| Callsign | OOEHY |
|---|---|
| Flight time | N/A |
| Altitude | 10000 |
| Route | NA DCT H5851 DCT DORYY/N0109F040 |
| Aircraft | C172/L-SFG/C |
Departure
| Time | 2026-04-16 13:31 |
|---|---|
| Airport | Narsarsuaq Airport (BGBW) |
Arrival
| Time | N/A |
|---|---|
| Airport | Goose Bay Airport (CYYR) |
| Time | Latitude | Longitude | Altitude | Speed | Heading |
|---|---|---|---|---|---|
| 2026-04-16 13:19 | 61.16185 | -45.41878 | 172 ft | 0 kts | 45° |
| 2026-04-16 13:27 | 61.16188 | -45.41874 | 171 ft | 3 kts | 37° |
| 2026-04-16 13:27 | 61.16242 | -45.41887 | 161 ft | 9 kts | 320° |
| 2026-04-16 13:28 | 61.16289 | -45.41995 | 148 ft | 9 kts | 310° |
| 2026-04-16 13:28 | 61.16337 | -45.42084 | 135 ft | 6 kts | 10° |
| 2026-04-16 13:28 | 61.16471 | -45.41860 | 122 ft | 49 kts | 40° |
| 2026-04-16 13:28 | 61.16813 | -45.41397 | 203 ft | 58 kts | 6° |
| 2026-04-16 13:29 | 61.17117 | -45.41937 | 243 ft | 69 kts | 279° |
| 2026-04-16 13:29 | 61.16885 | -45.42739 | 320 ft | 73 kts | 203° |
| 2026-04-16 13:29 | 61.16396 | -45.43128 | 383 ft | 81 kts | 200° |
| 2026-04-16 13:29 | 61.16171 | -45.43338 | 408 ft | 86 kts | 206° |
| 2026-04-16 13:30 | 61.16062 | -45.43457 | 423 ft | 88 kts | 208° |
| 2026-04-16 13:30 | 61.15545 | -45.44181 | 470 ft | 82 kts | 221° |
| 2026-04-16 13:30 | 61.15165 | -45.44867 | 440 ft | 69 kts | 219° |
| 2026-04-16 13:30 | 61.14788 | -45.45517 | 573 ft | 70 kts | 215° |
| 2026-04-16 13:31 | 61.14419 | -45.46180 | 718 ft | 71 kts | 218° |
| 2026-04-16 13:31 | 61.14061 | -45.46883 | 867 ft | 71 kts | 219° |
| 2026-04-16 13:31 | 61.13714 | -45.47606 | 1013 ft | 71 kts | 220° |
| 2026-04-16 13:31 | 61.13371 | -45.48353 | 1158 ft | 71 kts | 221° |
| 2026-04-16 13:32 | 61.13029 | -45.49119 | 1297 ft | 72 kts | 222° |
| 2026-04-16 13:32 | 61.12694 | -45.49887 | 1439 ft | 73 kts | 222° |
| 2026-04-16 13:32 | 61.12354 | -45.50676 | 1577 ft | 74 kts | 223° |
| 2026-04-16 13:32 | 61.12013 | -45.51477 | 1710 ft | 74 kts | 223° |
| 2026-04-16 13:33 | 61.11678 | -45.52266 | 1838 ft | 74 kts | 223° |
| 2026-04-16 13:33 | 61.11337 | -45.53071 | 1971 ft | 73 kts | 223° |
| 2026-04-16 13:33 | 61.11006 | -45.53853 | 2100 ft | 72 kts | 223° |
| 2026-04-16 13:33 | 61.10628 | -45.54770 | 2015 ft | 98 kts | 230° |
| 2026-04-16 13:34 | 61.10173 | -45.55981 | 1986 ft | 111 kts | 232° |
| 2026-04-16 13:34 | 61.09723 | -45.57149 | 2229 ft | 98 kts | 230° |
| 2026-04-16 13:34 | 61.09311 | -45.58149 | 2471 ft | 84 kts | 226° |
| 2026-04-16 13:34 | 61.08950 | -45.58962 | 2693 ft | 71 kts | 222° |
| 2026-04-16 13:35 | 61.08604 | -45.59705 | 2794 ft | 73 kts | 222° |
| 2026-04-16 13:35 | 61.08252 | -45.60479 | 2894 ft | 74 kts | 222° |
| 2026-04-16 13:35 | 61.07905 | -45.61263 | 3002 ft | 75 kts | 223° |
| 2026-04-16 13:35 | 61.07555 | -45.62068 | 3109 ft | 75 kts | 222° |
| 2026-04-16 13:36 | 61.07212 | -45.62866 | 3216 ft | 74 kts | 223° |
| 2026-04-16 13:36 | 61.06865 | -45.63676 | 3316 ft | 75 kts | 223° |
| 2026-04-16 13:36 | 61.06524 | -45.64478 | 3417 ft | 75 kts | 223° |
| 2026-04-16 13:36 | 61.06178 | -45.65287 | 3512 ft | 75 kts | 222° |
| 2026-04-16 13:37 | 61.05833 | -45.66096 | 3603 ft | 75 kts | 222° |
| 2026-04-16 13:37 | 61.05792 | -45.66195 | 3615 ft | 75 kts | 223° |